sensor_id;sensor_type;location;lat;lon;timestamp;temperature;humidity
11934;DHT22;6026;48.784;9.198;2022-10-16T00:01:26;15.60;99.90
11934;DHT22;6026;48.784;9.198;2022-10-16T00:03:52;15.60;99.90
11934;DHT22;6026;48.784;9.198;2022-10-16T00:06:20;15.50;99.90
11934;DHT22;6026;48.784;9.198;2022-10-16T00:08:47;15.50;99.90
11934;DHT22;6026;48.784;9.198;2022-10-16T00:11:23;15.50;99.90
11934;DHT22;6026;48.784;9.198;2022-10-16T00:13:51;15.50;99.90
11934;DHT22;6026;48.784;9.198;2022-10-16T00:16:18;15.50;99.90
11934;DHT22;6026;48.784;9.198;2022-10-16T00:18:44;15.50;99.90
11934;DHT22;6026;48.784;9.198;2022-10-16T00:21:15;15.60;99.90
11934;DHT22;6026;48.784;9.198;2022-10-16T00:23:41;15.50;99.90
11934;DHT22;6026;48.784;9.198;2022-10-16T00:26:10;15.50;99.90
11934;DHT22;6026;48.784;9.198;2022-10-16T00:28:37;15.50;99.90
11934;DHT22;6026;48.784;9.198;2022-10-16T00:31:08;15.40;99.90
11934;DHT22;6026;48.784;9.198;2022-10-16T00:33:34;15.40;99.90
11934;DHT22;6026;48.784;9.198;2022-10-16T00:36:01;15.30;99.90
11934;DHT22;6026;48.784;9.198;2022-10-16T00:38:27;15.30;99.90
11934;DHT22;6026;48.784;9.198;2022-10-16T00:40:53;15.30;99.90
11934;DHT22;6026;48.784;9.198;2022-10-16T00:46:24;15.20;99.90
11934;DHT22;6026;48.784;9.198;2022-10-16T00:51:25;15.20;99.90
11934;DHT22;6026;48.784;9.198;2022-10-16T00:53:53;15.10;99.90
11934;DHT22;6026;48.784;9.198;2022-10-16T00:56:19;15.10;99.90
11934;DHT22;6026;48.784;9.198;2022-10-16T00:58:45;15.10;99.90
11934;DHT22;6026;48.784;9.198;2022-10-16T01:01:11;15.10;99.90
11934;DHT22;6026;48.784;9.198;2022-10-16T01:03:37;15.00;99.90
11934;DHT22;6026;48.784;9.198;2022-10-16T01:06:22;15.10;99.90
11934;DHT22;6026;48.784;9.198;2022-10-16T01:14:46;15.20;99.90
11934;DHT22;6026;48.784;9.198;2022-10-16T01:17:18;15.20;99.90
11934;DHT22;6026;48.784;9.198;2022-10-16T01:22:25;15.20;99.90
11934;DHT22;6026;48.784;9.198;2022-10-16T01:25:00;15.20;99.90
11934;DHT22;6026;48.784;9.198;2022-10-16T01:30:45;15.20;99.90
11934;DHT22;6026;48.784;9.198;2022-10-16T01:33:16;15.20;99.90
11934;DHT22;6026;48.784;9.198;2022-10-16T01:35:47;15.20;99.90
11934;DHT22;6026;48.784;9.198;2022-10-16T01:38:29;15.20;99.90
11934;DHT22;6026;48.784;9.198;2022-10-16T01:41:00;15.20;99.90
11934;DHT22;6026;48.784;9.198;2022-10-16T01:43:31;15.20;99.90
11934;DHT22;6026;48.784;9.198;2022-10-16T01:46:00;15.20;99.90
11934;DHT22;6026;48.784;9.198;2022-10-16T01:48:26;15.20;99.90
11934;DHT22;6026;48.784;9.198;2022-10-16T01:51:16;15.10;99.90
11934;DHT22;6026;48.784;9.198;2022-10-16T01:53:46;15.20;99.90
11934;DHT22;6026;48.784;9.198;2022-10-16T01:56:13;15.20;99.90
11934;DHT22;6026;48.784;9.198;2022-10-16T01:58:48;15.20;99.90
11934;DHT22;6026;48.784;9.198;2022-10-16T02:01:16;15.20;99.90
11934;DHT22;6026;48.784;9.198;2022-10-16T02:03:44;15.20;99.90
11934;DHT22;6026;48.784;9.198;2022-10-16T02:06:12;15.20;99.90
11934;DHT22;6026;48.784;9.198;2022-10-16T02:08:38;15.20;99.90
11934;DHT22;6026;48.784;9.198;2022-10-16T02:11:05;15.20;99.90
11934;DHT22;6026;48.784;9.198;2022-10-16T02:13:40;15.20;99.90
11934;DHT22;6026;48.784;9.198;2022-10-16T02:16:09;15.20;99.90
11934;DHT22;6026;48.784;9.198;2022-10-16T02:18:35;15.20;99.90
11934;DHT22;6026;48.784;9.198;2022-10-16T02:21:13;15.20;99.90
11934;DHT22;6026;48.784;9.198;2022-10-16T02:26:17;15.20;99.90
11934;DHT22;6026;48.784;9.198;2022-10-16T02:28:48;15.20;99.90
11934;DHT22;6026;48.784;9.198;2022-10-16T02:31:20;15.20;99.90
11934;DHT22;6026;48.784;9.198;2022-10-16T02:33:47;15.40;99.90
11934;DHT22;6026;48.784;9.198;2022-10-16T02:36:14;15.40;99.90
11934;DHT22;6026;48.784;9.198;2022-10-16T02:38:40;15.40;99.90
11934;DHT22;6026;48.784;9.198;2022-10-16T02:41:06;15.50;99.90
11934;DHT22;6026;48.784;9.198;2022-10-16T02:43:32;15.40;99.90
11934;DHT22;6026;48.784;9.198;2022-10-16T02:45:59;15.40;99.90
11934;DHT22;6026;48.784;9.198;2022-10-16T02:48:24;15.40;99.90
11934;DHT22;6026;48.784;9.198;2022-10-16T02:50:50;15.40;99.90
11934;DHT22;6026;48.784;9.198;2022-10-16T02:53:16;15.40;99.90
11934;DHT22;6026;48.784;9.198;2022-10-16T02:55:42;15.40;99.90
11934;DHT22;6026;48.784;9.198;2022-10-16T02:58:07;15.30;99.90
11934;DHT22;6026;48.784;9.198;2022-10-16T03:00:33;15.30;99.90
11934;DHT22;6026;48.784;9.198;2022-10-16T03:02:58;15.30;99.90
11934;DHT22;6026;48.784;9.198;2022-10-16T03:05:24;15.30;99.90
11934;DHT22;6026;48.784;9.198;2022-10-16T03:07:49;15.30;99.90
11934;DHT22;6026;48.784;9.198;2022-10-16T03:10:15;15.20;99.90
11934;DHT22;6026;48.784;9.198;2022-10-16T03:12:41;15.20;99.90
11934;DHT22;6026;48.784;9.198;2022-10-16T03:15:06;15.10;99.90
11934;DHT22;6026;48.784;9.198;2022-10-16T03:17:33;15.10;99.90
11934;DHT22;6026;48.784;9.198;2022-10-16T03:19:58;15.10;99.90
11934;DHT22;6026;48.784;9.198;2022-10-16T03:22:24;15.10;99.90
11934;DHT22;6026;48.784;9.198;2022-10-16T03:24:49;15.10;99.90
11934;DHT22;6026;48.784;9.198;2022-10-16T03:27:15;15.10;99.90
11934;DHT22;6026;48.784;9.198;2022-10-16T03:29:40;15.00;99.90
11934;DHT22;6026;48.784;9.198;2022-10-16T03:32:06;15.00;99.90
11934;DHT22;6026;48.784;9.198;2022-10-16T03:34:31;15.00;99.90
11934;DHT22;6026;48.784;9.198;2022-10-16T03:36:57;15.00;99.90
11934;DHT22;6026;48.784;9.198;2022-10-16T03:39:22;14.90;99.90
11934;DHT22;6026;48.784;9.198;2022-10-16T03:41:48;15.00;99.90
11934;DHT22;6026;48.784;9.198;2022-10-16T03:44:14;14.90;99.90
11934;DHT22;6026;48.784;9.198;2022-10-16T03:46:39;14.90;99.90
11934;DHT22;6026;48.784;9.198;2022-10-16T03:49:05;14.90;99.90
11934;DHT22;6026;48.784;9.198;2022-10-16T03:51:30;14.90;99.90
11934;DHT22;6026;48.784;9.198;2022-10-16T03:53:56;14.90;99.90
11934;DHT22;6026;48.784;9.198;2022-10-16T03:56:22;14.90;99.90
11934;DHT22;6026;48.784;9.198;2022-10-16T03:58:47;14.90;99.90
11934;DHT22;6026;48.784;9.198;2022-10-16T04:01:13;14.90;99.90
11934;DHT22;6026;48.784;9.198;2022-10-16T04:03:38;14.90;99.90
11934;DHT22;6026;48.784;9.198;2022-10-16T04:06:04;14.90;99.90
11934;DHT22;6026;48.784;9.198;2022-10-16T04:08:30;14.90;99.90
11934;DHT22;6026;48.784;9.198;2022-10-16T04:10:55;14.80;99.90
11934;DHT22;6026;48.784;9.198;2022-10-16T04:13:21;14.90;99.90
11934;DHT22;6026;48.784;9.198;2022-10-16T04:15:46;14.80;99.90
11934;DHT22;6026;48.784;9.198;2022-10-16T04:18:12;14.80;99.90
11934;DHT22;6026;48.784;9.198;2022-10-16T04:20:38;14.80;99.90
11934;DHT22;6026;48.784;9.198;2022-10-16T04:23:03;14.80;99.90
11934;DHT22;6026;48.784;9.198;2022-10-16T04:25:30;14.80;99.90
11934;DHT22;6026;48.784;9.198;2022-10-16T04:27:56;14.80;99.90
11934;DHT22;6026;48.784;9.198;2022-10-16T04:30:22;14.80;99.90
11934;DHT22;6026;48.784;9.198;2022-10-16T04:32:49;14.80;99.90
11934;DHT22;6026;48.784;9.198;2022-10-16T04:35:16;14.80;99.90
11934;DHT22;6026;48.784;9.198;2022-10-16T04:37:41;14.80;99.90
11934;DHT22;6026;48.784;9.198;2022-10-16T04:40:07;14.70;99.90
11934;DHT22;6026;48.784;9.198;2022-10-16T04:42:33;14.70;99.90
11934;DHT22;6026;48.784;9.198;2022-10-16T04:44:58;14.70;99.90
11934;DHT22;6026;48.784;9.198;2022-10-16T04:47:24;14.70;99.90
11934;DHT22;6026;48.784;9.198;2022-10-16T04:49:49;14.70;99.90
11934;DHT22;6026;48.784;9.198;2022-10-16T04:52:15;14.70;99.90
11934;DHT22;6026;48.784;9.198;2022-10-16T04:54:40;14.70;99.90
11934;DHT22;6026;48.784;9.198;2022-10-16T04:57:06;14.70;99.90
11934;DHT22;6026;48.784;9.198;2022-10-16T04:59:32;14.70;99.90
11934;DHT22;6026;48.784;9.198;2022-10-16T05:01:57;14.70;99.90
11934;DHT22;6026;48.784;9.198;2022-10-16T05:04:23;14.70;99.90
11934;DHT22;6026;48.784;9.198;2022-10-16T05:06:48;14.70;99.90
11934;DHT22;6026;48.784;9.198;2022-10-16T05:09:14;14.70;99.90
11934;DHT22;6026;48.784;9.198;2022-10-16T05:11:40;14.70;99.90
11934;DHT22;6026;48.784;9.198;2022-10-16T05:14:05;14.70;99.90
11934;DHT22;6026;48.784;9.198;2022-10-16T05:16:31;14.80;99.90
11934;DHT22;6026;48.784;9.198;2022-10-16T05:18:56;14.90;99.90
11934;DHT22;6026;48.784;9.198;2022-10-16T05:21:22;14.80;99.90
11934;DHT22;6026;48.784;9.198;2022-10-16T05:23:48;14.90;99.90
11934;DHT22;6026;48.784;9.198;2022-10-16T05:26:13;14.90;99.90
11934;DHT22;6026;48.784;9.198;2022-10-16T05:28:39;14.90;99.90
11934;DHT22;6026;48.784;9.198;2022-10-16T05:31:09;14.90;99.90
11934;DHT22;6026;48.784;9.198;2022-10-16T05:33:35;14.80;99.90
11934;DHT22;6026;48.784;9.198;2022-10-16T05:36:06;14.80;99.90
11934;DHT22;6026;48.784;9.198;2022-10-16T05:38:33;14.80;99.90
11934;DHT22;6026;48.784;9.198;2022-10-16T05:40:59;14.80;99.90
11934;DHT22;6026;48.784;9.198;2022-10-16T05:43:24;14.70;99.90
11934;DHT22;6026;48.784;9.198;2022-10-16T05:45:58;14.80;99.90
11934;DHT22;6026;48.784;9.198;2022-10-16T05:48:24;14.70;99.90
11934;DHT22;6026;48.784;9.198;2022-10-16T05:51:00;14.70;99.90
11934;DHT22;6026;48.784;9.198;2022-10-16T05:53:31;14.70;99.90
11934;DHT22;6026;48.784;9.198;2022-10-16T05:55:57;14.60;99.90
11934;DHT22;6026;48.784;9.198;2022-10-16T05:58:24;14.70;99.90
11934;DHT22;6026;48.784;9.198;2022-10-16T06:00:57;14.70;99.90
11934;DHT22;6026;48.784;9.198;2022-10-16T06:03:23;14.70;99.90
11934;DHT22;6026;48.784;9.198;2022-10-16T06:05:49;14.70;99.90
11934;DHT22;6026;48.784;9.198;2022-10-16T06:08:15;14.70;99.90
11934;DHT22;6026;48.784;9.198;2022-10-16T06:10:41;14.70;99.90
11934;DHT22;6026;48.784;9.198;2022-10-16T06:13:06;14.70;99.90
11934;DHT22;6026;48.784;9.198;2022-10-16T06:15:32;14.80;99.90
11934;DHT22;6026;48.784;9.198;2022-10-16T06:17:58;14.80;99.90
11934;DHT22;6026;48.784;9.198;2022-10-16T06:20:23;14.80;99.90
11934;DHT22;6026;48.784;9.198;2022-10-16T06:22:49;14.90;99.90
11934;DHT22;6026;48.784;9.198;2022-10-16T06:25:14;15.00;99.90
11934;DHT22;6026;48.784;9.198;2022-10-16T06:27:40;15.10;99.90
11934;DHT22;6026;48.784;9.198;2022-10-16T06:30:07;15.10;99.90
11934;DHT22;6026;48.784;9.198;2022-10-16T06:32:33;15.20;99.90
11934;DHT22;6026;48.784;9.198;2022-10-16T06:34:58;15.20;99.90
11934;DHT22;6026;48.784;9.198;2022-10-16T06:37:24;15.20;99.90
11934;DHT22;6026;48.784;9.198;2022-10-16T06:39:50;15.20;99.90
11934;DHT22;6026;48.784;9.198;2022-10-16T06:42:17;15.30;99.90
11934;DHT22;6026;48.784;9.198;2022-10-16T06:44:43;15.30;99.90
11934;DHT22;6026;48.784;9.198;2022-10-16T06:47:09;15.30;99.90
11934;DHT22;6026;48.784;9.198;2022-10-16T06:49:34;15.30;99.90
11934;DHT22;6026;48.784;9.198;2022-10-16T06:52:00;15.40;99.90
11934;DHT22;6026;48.784;9.198;2022-10-16T06:54:27;15.60;99.90
11934;DHT22;6026;48.784;9.198;2022-10-16T06:56:53;15.60;99.90
11934;DHT22;6026;48.784;9.198;2022-10-16T06:59:22;15.60;99.90
11934;DHT22;6026;48.784;9.198;2022-10-16T07:01:48;15.60;99.90
11934;DHT22;6026;48.784;9.198;2022-10-16T07:04:14;15.70;99.90
11934;DHT22;6026;48.784;9.198;2022-10-16T07:06:40;15.70;99.90
11934;DHT22;6026;48.784;9.198;2022-10-16T07:09:09;15.70;99.90
11934;DHT22;6026;48.784;9.198;2022-10-16T07:11:37;15.70;99.90
11934;DHT22;6026;48.784;9.198;2022-10-16T07:14:04;15.80;99.90
11934;DHT22;6026;48.784;9.198;2022-10-16T07:16:32;15.80;99.90
11934;DHT22;6026;48.784;9.198;2022-10-16T07:18:59;15.80;99.90
11934;DHT22;6026;48.784;9.198;2022-10-16T07:21:27;15.90;99.90
11934;DHT22;6026;48.784;9.198;2022-10-16T07:23:58;15.90;99.90
11934;DHT22;6026;48.784;9.198;2022-10-16T07:26:26;16.00;99.90
11934;DHT22;6026;48.784;9.198;2022-10-16T07:28:52;16.00;99.90
11934;DHT22;6026;48.784;9.198;2022-10-16T07:31:19;16.00;99.90
11934;DHT22;6026;48.784;9.198;2022-10-16T07:33:46;16.10;99.90
11934;DHT22;6026;48.784;9.198;2022-10-16T07:36:14;16.10;99.90
11934;DHT22;6026;48.784;9.198;2022-10-16T07:38:40;16.10;99.90
11934;DHT22;6026;48.784;9.198;2022-10-16T07:41:13;16.10;99.90
11934;DHT22;6026;48.784;9.198;2022-10-16T07:43:39;16.20;99.90
11934;DHT22;6026;48.784;9.198;2022-10-16T07:46:05;16.10;99.90
11934;DHT22;6026;48.784;9.198;2022-10-16T07:48:32;16.10;99.90
11934;DHT22;6026;48.784;9.198;2022-10-16T07:51:05;16.00;99.90
11934;DHT22;6026;48.784;9.198;2022-10-16T07:53:32;16.00;99.90
11934;DHT22;6026;48.784;9.198;2022-10-16T07:56:01;16.10;99.90
11934;DHT22;6026;48.784;9.198;2022-10-16T07:58:27;16.10;99.90
11934;DHT22;6026;48.784;9.198;2022-10-16T08:00:54;16.10;99.90
11934;DHT22;6026;48.784;9.198;2022-10-16T08:03:19;16.10;99.90
11934;DHT22;6026;48.784;9.198;2022-10-16T08:05:45;16.10;99.90
11934;DHT22;6026;48.784;9.198;2022-10-16T08:08:14;16.20;99.90
11934;DHT22;6026;48.784;9.198;2022-10-16T08:10:40;16.20;99.90
11934;DHT22;6026;48.784;9.198;2022-10-16T08:13:06;16.20;99.90
11934;DHT22;6026;48.784;9.198;2022-10-16T08:15:31;16.30;99.90
11934;DHT22;6026;48.784;9.198;2022-10-16T08:18:02;16.40;99.90
11934;DHT22;6026;48.784;9.198;2022-10-16T08:20:28;16.40;99.90
11934;DHT22;6026;48.784;9.198;2022-10-16T08:22:55;16.50;99.90
11934;DHT22;6026;48.784;9.198;2022-10-16T08:25:22;16.70;99.90
11934;DHT22;6026;48.784;9.198;2022-10-16T08:27:48;16.80;99.90
11934;DHT22;6026;48.784;9.198;2022-10-16T08:30:14;17.10;99.90
11934;DHT22;6026;48.784;9.198;2022-10-16T08:32:40;17.30;99.90
11934;DHT22;6026;48.784;9.198;2022-10-16T08:35:10;17.50;99.90
11934;DHT22;6026;48.784;9.198;2022-10-16T08:37:37;17.70;99.90
11934;DHT22;6026;48.784;9.198;2022-10-16T08:40:03;17.90;99.90
11934;DHT22;6026;48.784;9.198;2022-10-16T08:42:47;18.10;99.90
11934;DHT22;6026;48.784;9.198;2022-10-16T08:48:20;18.30;99.90
11934;DHT22;6026;48.784;9.198;2022-10-16T08:50:47;18.40;99.90
11934;DHT22;6026;48.784;9.198;2022-10-16T08:53:20;18.50;99.90
11934;DHT22;6026;48.784;9.198;2022-10-16T08:55:51;18.50;99.90
11934;DHT22;6026;48.784;9.198;2022-10-16T08:58:22;18.50;99.90
11934;DHT22;6026;48.784;9.198;2022-10-16T09:00:59;18.40;99.90
11934;DHT22;6026;48.784;9.198;2022-10-16T09:12:15;18.40;99.90
11934;DHT22;6026;48.784;9.198;2022-10-16T09:15:11;18.50;99.90
11934;DHT22;6026;48.784;9.198;2022-10-16T09:25:32;19.10;99.90
11934;DHT22;6026;48.784;9.198;2022-10-16T09:27:58;19.40;99.90
11934;DHT22;6026;48.784;9.198;2022-10-16T09:30:27;19.50;99.90
11934;DHT22;6026;48.784;9.198;2022-10-16T09:32:55;19.60;99.90
11934;DHT22;6026;48.784;9.198;2022-10-16T09:37:58;19.80;99.90
11934;DHT22;6026;48.784;9.198;2022-10-16T09:40:33;20.10;99.90
11934;DHT22;6026;48.784;9.198;2022-10-16T09:46:00;20.60;99.90
11934;DHT22;6026;48.784;9.198;2022-10-16T09:48:31;20.60;99.90
11934;DHT22;6026;48.784;9.198;2022-10-16T09:51:01;20.60;99.90
11934;DHT22;6026;48.784;9.198;2022-10-16T09:53:42;20.70;99.90
11934;DHT22;6026;48.784;9.198;2022-10-16T09:56:10;20.80;99.90
11934;DHT22;6026;48.784;9.198;2022-10-16T09:58:42;21.20;99.90
11934;DHT22;6026;48.784;9.198;2022-10-16T10:01:13;21.30;99.90
11934;DHT22;6026;48.784;9.198;2022-10-16T10:03:41;21.40;99.90
11934;DHT22;6026;48.784;9.198;2022-10-16T10:06:25;21.50;99.90
11934;DHT22;6026;48.784;9.198;2022-10-16T10:09:00;21.60;99.90
11934;DHT22;6026;48.784;9.198;2022-10-16T10:11:57;21.60;99.90
11934;DHT22;6026;48.784;9.198;2022-10-16T10:14:36;21.60;99.90
11934;DHT22;6026;48.784;9.198;2022-10-16T10:19:28;21.50;99.90
11934;DHT22;6026;48.784;9.198;2022-10-16T10:21:53;21.50;99.90
11934;DHT22;6026;48.784;9.198;2022-10-16T10:24:20;21.60;99.90
11934;DHT22;6026;48.784;9.198;2022-10-16T10:26:57;21.70;99.90
11934;DHT22;6026;48.784;9.198;2022-10-16T10:32:24;21.90;99.90
11934;DHT22;6026;48.784;9.198;2022-10-16T10:35:03;22.10;99.90
11934;DHT22;6026;48.784;9.198;2022-10-16T10:43:21;22.50;99.90
11934;DHT22;6026;48.784;9.198;2022-10-16T10:45:46;22.80;99.90
11934;DHT22;6026;48.784;9.198;2022-10-16T10:48:24;23.00;99.90
11934;DHT22;6026;48.784;9.198;2022-10-16T10:51:35;23.10;99.90
11934;DHT22;6026;48.784;9.198;2022-10-16T11:02:52;24.40;99.90
11934;DHT22;6026;48.784;9.198;2022-10-16T11:16:02;25.80;99.90
11934;DHT22;6026;48.784;9.198;2022-10-16T11:18:49;26.10;99.90
11934;DHT22;6026;48.784;9.198;2022-10-16T11:21:18;26.10;99.90
11934;DHT22;6026;48.784;9.198;2022-10-16T11:23:58;26.20;99.90
11934;DHT22;6026;48.784;9.198;2022-10-16T11:26:33;26.10;99.90
11934;DHT22;6026;48.784;9.198;2022-10-16T11:29:01;26.30;99.90
11934;DHT22;6026;48.784;9.198;2022-10-16T11:31:45;26.30;99.90
11934;DHT22;6026;48.784;9.198;2022-10-16T11:36:56;26.50;99.90
11934;DHT22;6026;48.784;9.198;2022-10-16T11:39:31;26.20;99.90
11934;DHT22;6026;48.784;9.198;2022-10-16T11:42:50;26.40;99.90
11934;DHT22;6026;48.784;9.198;2022-10-16T11:45:38;26.80;99.90
11934;DHT22;6026;48.784;9.198;2022-10-16T11:55:53;28.40;99.90
11934;DHT22;6026;48.784;9.198;2022-10-16T12:03:46;29.70;99.90
11934;DHT22;6026;48.784;9.198;2022-10-16T12:09:15;30.30;99.90
11934;DHT22;6026;48.784;9.198;2022-10-16T12:11:45;30.50;99.90
11934;DHT22;6026;48.784;9.198;2022-10-16T12:16:38;30.50;99.90
11934;DHT22;6026;48.784;9.198;2022-10-16T12:19:15;30.70;99.90
11934;DHT22;6026;48.784;9.198;2022-10-16T12:21:42;30.40;99.90
11934;DHT22;6026;48.784;9.198;2022-10-16T12:24:21;30.20;99.90
11934;DHT22;6026;48.784;9.198;2022-10-16T12:26:49;29.80;99.90
11934;DHT22;6026;48.784;9.198;2022-10-16T12:29:37;29.70;99.90
11934;DHT22;6026;48.784;9.198;2022-10-16T12:32:29;29.80;99.90
11934;DHT22;6026;48.784;9.198;2022-10-16T12:34:55;30.00;99.90
11934;DHT22;6026;48.784;9.198;2022-10-16T12:37:34;29.60;99.90
11934;DHT22;6026;48.784;9.198;2022-10-16T12:40:26;29.50;99.90
11934;DHT22;6026;48.784;9.198;2022-10-16T12:42:52;29.20;99.90
11934;DHT22;6026;48.784;9.198;2022-10-16T12:45:34;28.90;99.90
11934;DHT22;6026;48.784;9.198;2022-10-16T12:48:02;28.60;99.90
11934;DHT22;6026;48.784;9.198;2022-10-16T12:52:56;29.10;99.90
11934;DHT22;6026;48.784;9.198;2022-10-16T12:55:23;29.30;99.90
11934;DHT22;6026;48.784;9.198;2022-10-16T13:00:28;29.50;99.90
11934;DHT22;6026;48.784;9.198;2022-10-16T13:11:57;28.40;99.90
11934;DHT22;6026;48.784;9.198;2022-10-16T13:22:28;27.20;99.90
11934;DHT22;6026;48.784;9.198;2022-10-16T13:25:16;27.30;99.90
11934;DHT22;6026;48.784;9.198;2022-10-16T13:27:50;27.10;99.90
11934;DHT22;6026;48.784;9.198;2022-10-16T13:30:21;27.00;99.90
11934;DHT22;6026;48.784;9.198;2022-10-16T13:32:59;26.90;99.90
11934;DHT22;6026;48.784;9.198;2022-10-16T13:35:28;26.70;99.90
11934;DHT22;6026;48.784;9.198;2022-10-16T13:38:13;26.40;99.90
11934;DHT22;6026;48.784;9.198;2022-10-16T13:43:42;25.90;99.90
11934;DHT22;6026;48.784;9.198;2022-10-16T13:46:15;25.60;99.90
11934;DHT22;6026;48.784;9.198;2022-10-16T13:48:42;25.40;99.90
11934;DHT22;6026;48.784;9.198;2022-10-16T13:51:18;25.30;99.90
11934;DHT22;6026;48.784;9.198;2022-10-16T13:53:44;25.20;99.90
11934;DHT22;6026;48.784;9.198;2022-10-16T13:56:21;25.10;99.90
11934;DHT22;6026;48.784;9.198;2022-10-16T13:59:03;25.10;99.90
11934;DHT22;6026;48.784;9.198;2022-10-16T14:01:35;25.10;99.90
11934;DHT22;6026;48.784;9.198;2022-10-16T14:04:08;25.20;99.90
11934;DHT22;6026;48.784;9.198;2022-10-16T14:06:36;25.10;99.90
11934;DHT22;6026;48.784;9.198;2022-10-16T14:12:02;25.00;99.90
11934;DHT22;6026;48.784;9.198;2022-10-16T14:14:34;24.90;99.90
11934;DHT22;6026;48.784;9.198;2022-10-16T14:17:00;24.70;99.90
11934;DHT22;6026;48.784;9.198;2022-10-16T14:19:28;24.60;99.90
11934;DHT22;6026;48.784;9.198;2022-10-16T14:21:56;24.50;99.90
11934;DHT22;6026;48.784;9.198;2022-10-16T14:24:32;24.30;99.90
11934;DHT22;6026;48.784;9.198;2022-10-16T14:26:59;24.10;99.90
11934;DHT22;6026;48.784;9.198;2022-10-16T14:29:26;24.10;99.90
11934;DHT22;6026;48.784;9.198;2022-10-16T14:31:57;24.10;99.90
11934;DHT22;6026;48.784;9.198;2022-10-16T14:34:31;24.00;99.90
11934;DHT22;6026;48.784;9.198;2022-10-16T14:36:59;23.90;99.90
11934;DHT22;6026;48.784;9.198;2022-10-16T14:39:27;23.80;99.90
11934;DHT22;6026;48.784;9.198;2022-10-16T14:41:56;23.80;99.90
11934;DHT22;6026;48.784;9.198;2022-10-16T14:44:28;23.80;99.90
11934;DHT22;6026;48.784;9.198;2022-10-16T14:46:55;23.70;99.90
11934;DHT22;6026;48.784;9.198;2022-10-16T14:49:22;23.50;99.90
11934;DHT22;6026;48.784;9.198;2022-10-16T14:51:49;23.40;99.90
11934;DHT22;6026;48.784;9.198;2022-10-16T14:54:16;23.40;99.90
11934;DHT22;6026;48.784;9.198;2022-10-16T14:56:54;23.40;99.90
11934;DHT22;6026;48.784;9.198;2022-10-16T14:59:39;23.40;99.90
11934;DHT22;6026;48.784;9.198;2022-10-16T15:02:32;23.50;99.90
11934;DHT22;6026;48.784;9.198;2022-10-16T15:07:40;23.50;99.90
11934;DHT22;6026;48.784;9.198;2022-10-16T15:10:05;23.60;99.90
11934;DHT22;6026;48.784;9.198;2022-10-16T15:12:31;23.70;99.90
11934;DHT22;6026;48.784;9.198;2022-10-16T15:14:56;23.80;99.90
11934;DHT22;6026;48.784;9.198;2022-10-16T15:17:22;23.80;99.90
11934;DHT22;6026;48.784;9.198;2022-10-16T15:19:48;23.70;99.90
11934;DHT22;6026;48.784;9.198;2022-10-16T15:22:13;23.80;99.90
11934;DHT22;6026;48.784;9.198;2022-10-16T15:24:39;23.70;99.90
11934;DHT22;6026;48.784;9.198;2022-10-16T15:27:04;23.80;99.90
11934;DHT22;6026;48.784;9.198;2022-10-16T15:29:30;23.80;99.90
11934;DHT22;6026;48.784;9.198;2022-10-16T15:31:56;23.80;99.90
11934;DHT22;6026;48.784;9.198;2022-10-16T15:34:21;23.90;99.90
11934;DHT22;6026;48.784;9.198;2022-10-16T15:36:47;23.90;99.90
11934;DHT22;6026;48.784;9.198;2022-10-16T15:39:19;23.90;99.90
11934;DHT22;6026;48.784;9.198;2022-10-16T15:41:46;23.80;99.90
11934;DHT22;6026;48.784;9.198;2022-10-16T15:44:20;23.70;99.90
11934;DHT22;6026;48.784;9.198;2022-10-16T15:46:46;23.40;99.90
11934;DHT22;6026;48.784;9.198;2022-10-16T15:49:12;23.30;99.90
11934;DHT22;6026;48.784;9.198;2022-10-16T15:51:40;23.10;99.90
11934;DHT22;6026;48.784;9.198;2022-10-16T15:54:05;22.90;99.90
11934;DHT22;6026;48.784;9.198;2022-10-16T15:56:31;22.90;99.90
11934;DHT22;6026;48.784;9.198;2022-10-16T15:58:59;22.80;99.90
11934;DHT22;6026;48.784;9.198;2022-10-16T16:01:25;22.70;99.90
11934;DHT22;6026;48.784;9.198;2022-10-16T16:03:54;22.60;99.90
11934;DHT22;6026;48.784;9.198;2022-10-16T16:06:21;22.40;99.90
11934;DHT22;6026;48.784;9.198;2022-10-16T16:08:47;22.30;99.90
11934;DHT22;6026;48.784;9.198;2022-10-16T16:11:14;22.20;99.90
11934;DHT22;6026;48.784;9.198;2022-10-16T16:13:40;22.10;99.90
11934;DHT22;6026;48.784;9.198;2022-10-16T16:16:12;21.90;99.90
11934;DHT22;6026;48.784;9.198;2022-10-16T16:18:39;21.70;99.90
11934;DHT22;6026;48.784;9.198;2022-10-16T16:21:04;21.60;99.90
11934;DHT22;6026;48.784;9.198;2022-10-16T16:23:30;21.40;99.90
11934;DHT22;6026;48.784;9.198;2022-10-16T16:26:26;21.10;99.90
11934;DHT22;6026;48.784;9.198;2022-10-16T16:28:53;20.90;99.90
11934;DHT22;6026;48.784;9.198;2022-10-16T16:31:19;20.80;99.90
11934;DHT22;6026;48.784;9.198;2022-10-16T16:33:45;20.70;99.90
11934;DHT22;6026;48.784;9.198;2022-10-16T16:36:11;20.60;99.90
11934;DHT22;6026;48.784;9.198;2022-10-16T16:38:37;20.60;99.90
11934;DHT22;6026;48.784;9.198;2022-10-16T16:41:19;20.40;99.90
11934;DHT22;6026;48.784;9.198;2022-10-16T16:43:46;20.40;99.90
11934;DHT22;6026;48.784;9.198;2022-10-16T16:46:13;20.40;99.90
11934;DHT22;6026;48.784;9.198;2022-10-16T16:48:39;20.20;99.90
11934;DHT22;6026;48.784;9.198;2022-10-16T16:51:10;20.10;99.90
11934;DHT22;6026;48.784;9.198;2022-10-16T16:53:41;20.10;99.90
11934;DHT22;6026;48.784;9.198;2022-10-16T16:56:07;20.10;99.90
11934;DHT22;6026;48.784;9.198;2022-10-16T16:58:33;19.90;99.90
11934;DHT22;6026;48.784;9.198;2022-10-16T17:01:00;19.80;99.90
11934;DHT22;6026;48.784;9.198;2022-10-16T17:03:28;19.90;99.90
11934;DHT22;6026;48.784;9.198;2022-10-16T17:06:06;19.80;99.90
11934;DHT22;6026;48.784;9.198;2022-10-16T17:08:34;19.80;99.90
11934;DHT22;6026;48.784;9.198;2022-10-16T17:11:00;19.80;99.90
11934;DHT22;6026;48.784;9.198;2022-10-16T17:13:30;19.60;99.90
11934;DHT22;6026;48.784;9.198;2022-10-16T17:15:56;19.60;99.90
11934;DHT22;6026;48.784;9.198;2022-10-16T17:18:23;19.50;99.90
11934;DHT22;6026;48.784;9.198;2022-10-16T17:20:50;19.50;99.90
11934;DHT22;6026;48.784;9.198;2022-10-16T17:23:17;19.40;99.90
11934;DHT22;6026;48.784;9.198;2022-10-16T17:25:44;19.40;99.90
11934;DHT22;6026;48.784;9.198;2022-10-16T17:28:12;19.40;99.90
11934;DHT22;6026;48.784;9.198;2022-10-16T17:30:39;19.30;99.90
11934;DHT22;6026;48.784;9.198;2022-10-16T17:33:06;19.20;99.90
11934;DHT22;6026;48.784;9.198;2022-10-16T17:35:43;19.10;99.90
11934;DHT22;6026;48.784;9.198;2022-10-16T17:38:09;19.00;99.90
11934;DHT22;6026;48.784;9.198;2022-10-16T17:40:35;18.90;99.90
11934;DHT22;6026;48.784;9.198;2022-10-16T17:43:01;18.90;99.90
11934;DHT22;6026;48.784;9.198;2022-10-16T17:45:27;18.80;99.90
11934;DHT22;6026;48.784;9.198;2022-10-16T17:47:53;18.70;99.90
11934;DHT22;6026;48.784;9.198;2022-10-16T17:50:19;18.80;99.90
11934;DHT22;6026;48.784;9.198;2022-10-16T17:52:45;18.70;99.90
11934;DHT22;6026;48.784;9.198;2022-10-16T17:55:11;18.70;99.90
11934;DHT22;6026;48.784;9.198;2022-10-16T17:57:37;18.70;99.90
11934;DHT22;6026;48.784;9.198;2022-10-16T18:00:04;18.60;99.90
11934;DHT22;6026;48.784;9.198;2022-10-16T18:02:31;18.50;99.90
11934;DHT22;6026;48.784;9.198;2022-10-16T18:04:57;18.50;99.90